Flight Track Log - Related Links

Times and Time Zones

All times are in EDT time to prevent confusion due to time zone crossing. See the N705JB flight status page for this flight to view local times or setup timezone preferences in your user account.

Time Position Orientation Groundspeed Altitude Reporting Facility
EDT Latitude Longitude Course Direction KTS MPH feet Rate Location/Type
Tue 07:17:16 AM 43.1089 -76.0922 231° Southwest 152 175 1,200  Level Boston Center
Tue 07:22:11 AM 42.9358 -76.3792 212° Southwest 305 351 10,000 1,618 Climbing New York Center
Tue 07:23:12 AM 42.8511 -76.4508 208° Southwest 331 381 10,800 2,231 Climbing New York Center
Tue 07:24:12 AM 42.7672 -76.5114 210° Southwest 341 392 14,500 2,797 Climbing New York Center
Tue 07:25:10 AM 42.6936 -76.5697 208° Southwest 341 392 16,300 1,932 Climbing New York Center
Tue 07:26:10 AM 42.6050 -76.6350 210° Southwest 359 413 18,300 2,050 Climbing New York Center
Tue 07:27:10 AM 42.5164 -76.7031 210° Southwest 375 432 20,400 1,820 Climbing New York Center
Tue 07:28:12 AM 42.4211 -76.7786 209° Southwest 387 445 22,000 1,300 Climbing New York Center
Tue 07:29:10 AM 42.3258 -76.8511 210° Southwest 399 459 23,000 555 Climbing New York Center
Tue 07:30:11 AM 42.2217 -76.9311 209° Southwest 399 459 23,100 793 Climbing New York Center
Tue 07:31:11 AM 42.1242 -77.0033 210° Southwest 399 459 24,600 1,400 Climbing New York Center
Tue 07:32:11 AM 42.0264 -77.0806 212° Southwest 399 459 25,900 1,240 Climbing New York Center
Tue 07:34:10 AM 41.8258 -77.2508 211° Southwest 429 494 28,300 1,094 Climbing New York Center
Tue 07:35:12 AM 41.7256 -77.3328 212° Southwest 435 501 29,200 1,261 Climbing New York Center
Tue 07:36:09 AM 41.6206 -77.4197 204° Southwest 435 501 30,800 1,200 Climbing New York Center
Tue 07:38:27 AM 41.3864 -77.5608 201° Southwest 419 482 33,100 1,091 Climbing Cleveland Center
Tue 07:39:27 AM 41.2753 -77.6183 202° Southwest 429 494 34,400 1,200 Climbing Cleveland Center
Tue 07:40:27 AM 41.1664 -77.6758 201° Southwest 429 494 35,500 800 Climbing Cleveland Center
Tue 07:41:27 AM 41.0594 -77.7300 201° Southwest 424 488 36,000 250 Climbing Cleveland Center
Tue 07:42:27 AM 40.9503 -77.7844 201° Southwest 424 488 36,000  Level Cleveland Center
Tue 07:43:27 AM 40.8411 -77.8411 200° South 424 488 36,000  Level Cleveland Center
Tue 07:44:27 AM 40.7317 -77.8950 203° Southwest 424 488 36,000  Level Cleveland Center
Tue 07:45:27 AM 40.6247 -77.9542 200° South 424 488 36,000  Level Cleveland Center
Tue 07:46:27 AM 40.5133 -78.0078 201° Southwest 424 488 36,000  Level Cleveland Center
Tue 07:47:27 AM 40.4019 -78.0639 202° Southwest 424 488 36,000  Level Cleveland Center
Tue 07:48:27 AM 40.2950 -78.1194 201° Southwest 424 488 36,000  Level Cleveland Center
Tue 07:49:27 AM 40.1836 -78.1753 200° South 424 488 36,000  Level Cleveland Center
Tue 07:50:27 AM 40.0719 -78.2281 199° South 424 488 36,000  Level Cleveland Center
Tue 07:52:12 AM 39.8789 -78.3169 184° South 408 470 36,000  Level Washington Center
Tue 07:53:13 AM 39.7408 -78.3306 185° South 437 503 36,000  Level Washington Center
Tue 07:54:13 AM 39.6197 -78.3447 184° South 442 509 36,000  Level Washington Center
Tue 07:55:14 AM 39.4986 -78.3564 186° South 442 509 36,000  Level Washington Center
Tue 07:56:12 AM 39.3794 -78.3733 185° South 442 509 36,000  Level Washington Center
Tue 07:57:13 AM 39.2542 -78.3872 198° South 447 514 36,000  Level Washington Center
Tue 07:58:14 AM 39.1425 -78.4339 202° Southwest 441 507 36,000  Level Washington Center
Tue 07:59:12 AM 39.0286 -78.4933 203° Southwest 439 505 36,000  Level Washington Center
Tue 08:00:13 AM 38.9167 -78.5531 203° Southwest 439 505 36,000  Level Washington Center
Tue 08:01:14 AM 38.8067 -78.6125 203° Southwest 439 505 36,000  Level Washington Center
Tue 08:02:12 AM 38.6947 -78.6719 202° Southwest 439 505 36,000  Level Washington Center
Tue 08:03:12 AM 38.5847 -78.7283 203° Southwest 439 505 36,000  Level Washington Center
Tue 08:04:12 AM 38.4833 -78.7825 202° Southwest 439 505 36,000  Level Washington Center
Tue 08:05:12 AM 38.3692 -78.8411 204° Southwest 439 505 36,000  Level Washington Center
Tue 08:06:13 AM 38.2631 -78.9025 202° Southwest 434 499 36,000  Level Washington Center
Tue 08:07:14 AM 38.1489 -78.9608 202° Southwest 429 494 36,000  Level Washington Center
Tue 08:08:14 AM 38.0219 -79.0264 202° Southwest 441 507 36,000  Level Washington Center
Tue 08:09:12 AM 37.9033 -79.0867 201° Southwest 447 514 36,000  Level Washington Center
Tue 08:10:14 AM 37.7869 -79.1444 204° Southwest 447 514 36,000  Level Washington Center
Tue 08:11:12 AM 37.6703 -79.2097 201° Southwest 453 521 36,000  Level Washington Center
Tue 08:12:13 AM 37.5517 -79.2669 200° South 460 529 36,000  Level Washington Center
Tue 08:13:13 AM 37.4311 -79.3214 203° Southwest 460 529 36,000  Level Washington Center
Tue 08:14:14 AM 37.3125 -79.3833 202° Southwest 465 535 36,000  Level Washington Center
Tue 08:15:12 AM 37.2064 -79.4383 202° Southwest 470 541 36,000  Level Washington Center
Tue 08:16:14 AM 37.0875 -79.4972 203° Southwest 464 534 36,000  Level Washington Center
Tue 08:17:13 AM 36.9686 -79.5589 202° Southwest 464 534 36,000  Level Washington Center
Tue 08:18:13 AM 36.8500 -79.6178 202° Southwest 464 534 36,000  Level Washington Center
Tue 08:19:14 AM 36.7183 -79.6833 202° Southwest 464 534 36,000  Level Washington Center
Tue 08:20:12 AM 36.6017 -79.7419 201° Southwest 464 534 36,000  Level Washington Center
Tue 08:21:12 AM 36.4806 -79.8000 201° Southwest 464 534 36,000  Level Washington Center
Tue 08:22:17 AM 36.3644 -79.8542 202° Southwest 466 536 36,000  Level Atlanta Center
Tue 08:23:17 AM 36.2456 -79.9144 201° Southwest 466 536 36,000  Level Atlanta Center
Tue 08:24:29 AM 36.1119 -79.9778 201° Southwest 466 536 36,000  Level Atlanta Center
Tue 08:25:29 AM 35.9703 -80.0464 202° Southwest 466 536 36,000  Level Atlanta Center
Tue 08:26:29 AM 35.8492 -80.1064 202° Southwest 466 536 36,000  Level Atlanta Center
Tue 08:27:29 AM 35.7322 -80.1656 202° Southwest 466 536 36,000  Level Atlanta Center
Tue 08:28:29 AM 35.6111 -80.2250 202° Southwest 466 536 36,000  Level Atlanta Center
Tue 08:29:29 AM 35.5022 -80.2786 201° Southwest 466 536 36,000  Level Atlanta Center
Tue 08:30:29 AM 35.3850 -80.3347 201° Southwest 466 536 36,000  Level Atlanta Center
Tue 08:32:34 AM 35.1147 -80.4642 201° Southwest 466 536 36,000  Level Jacksonville Center
Tue 08:33:34 AM 34.9947 -80.5208 202° Southwest 472 543 36,000  Level Jacksonville Center
Tue 08:34:34 AM 34.8728 -80.5797 200° South 465 535 36,000  Level Jacksonville Center
Tue 08:35:34 AM 34.7694 -80.6256 201° Southwest 462 532 36,000 -50 Level Jacksonville Center
Tue 08:36:34 AM 34.6494 -80.6817 203° Southwest 462 532 35,900  Descending Jacksonville Center
Tue 08:37:35 AM 34.5214 -80.7481 201° Southwest 489 563 36,000 50 Climbing Jacksonville Center
Tue 08:38:34 AM 34.3992 -80.8064 193° South 489 563 36,000  Level Jacksonville Center
Tue 08:42:35 AM 33.9006 -80.9458 187° South 476 548 36,000  Level Jacksonville Center
Tue 08:47:34 AM 33.2406 -81.0447 187° South 483 556 36,000  Level Jacksonville Center
Tue 08:48:35 AM 33.1114 -81.0647 186° South 483 556 36,000  Level Jacksonville Center
Tue 08:49:34 AM 32.9803 -81.0825 187° South 483 556 36,000 -50 Level Jacksonville Center
Tue 08:50:34 AM 32.8469 -81.1025 186° South 483 556 35,900  Descending Jacksonville Center
Tue 08:51:34 AM 32.7178 -81.1197 185° South 483 556 36,000 50 Climbing Jacksonville Center
Tue 08:52:34 AM 32.5697 -81.1350 180° South 478 550 36,000  Level Jacksonville Center
Tue 08:53:34 AM 32.4383 -81.1350 180° South 478 550 36,000 -300 Level Jacksonville Center
Tue 08:54:34 AM 32.3006 -81.1353 178° South 490 564 35,400 -550 Descending Jacksonville Center
Tue 08:55:34 AM 32.1625 -81.1306 181° South 499 574 34,900 -450 Descending Jacksonville Center
Tue 08:56:34 AM 32.0269 -81.1331 179° South 485 558 34,500 -450 Descending Jacksonville Center
Tue 08:57:34 AM 31.8911 -81.1308 179° South 485 558 34,000 -250 Descending Jacksonville Center
Tue 08:58:34 AM 31.7575 -81.1286 180° South 485 558 34,000  Level Jacksonville Center
Tue 08:59:34 AM 31.6219 -81.1286 179° South 491 565 34,000  Level Jacksonville Center
Tue 09:00:34 AM 31.4986 -81.1261 180° South 496 571 34,000  Level Jacksonville Center
Tue 09:01:34 AM 31.3483 -81.1264 179° South 496 571 34,000  Level Jacksonville Center
Tue 09:02:34 AM 31.2125 -81.1242 181° South 496 571 34,000  Level Jacksonville Center
Tue 09:03:34 AM 31.1042 -81.1261 178° South 496 571 34,000  Level Jacksonville Center
Tue 09:04:34 AM 30.9558 -81.1194 181° South 496 571 34,000  Level Jacksonville Center
Tue 09:05:34 AM 30.8200 -81.1219 179° South 496 571 34,000 -50 Level Jacksonville Center
Tue 09:06:34 AM 30.6842 -81.1194 181° South 496 571 33,900  Descending Jacksonville Center
Tue 09:07:34 AM 30.5528 -81.1219 179° South 491 565 34,000 50 Climbing Jacksonville Center
Tue 09:08:34 AM 30.4150 -81.1197 179° South 491 565 34,000  Level Jacksonville Center
Tue 09:09:34 AM 30.2792 -81.1175 180° South 491 565 34,000 -1,225 Level Jacksonville Center
Tue 09:12:34 AM 29.8783 -81.1153 180° South 485 558 29,100 -2,025 Descending Jacksonville Center
Tue 09:13:34 AM 29.7386 -81.1153 180° South 496 571 25,900 -3,150 Descending Jacksonville Center
Tue 09:14:34 AM 29.6008 -81.1156 180° South 491 565 22,800 -2,950 Descending Jacksonville Center
Tue 09:15:34 AM 29.4756 -81.1153 180° South 478 550 20,000 -2,850 Descending Jacksonville Center
Tue 09:16:34 AM 29.3503 -81.1153 177° South 460 529 17,100 -2,876 Descending Jacksonville Center
Tue 09:17:35 AM 29.2353 -81.1078 176° South 437 503 14,200 -2,083 Descending Jacksonville Center
Tue 09:18:35 AM 29.1244 -81.0981 177° South 415 478 12,900 -1,100 Descending Jacksonville Center
Tue 09:19:35 AM 29.0283 -81.0925 171° South 380 437 12,000 -750 Descending Jacksonville Center
Tue 09:20:35 AM 28.9469 -81.0775 172° South 340 391 11,400 -1,050 Descending Jacksonville Center
Tue 09:21:35 AM 28.8631 -81.0647 168° South 315 362 9,900 -1,705 Descending Jacksonville Center
Tue 09:22:10 AM 28.8000 -81.0500 221° Southwest 291 335 8,700 -1,618 Descending Orlando TRACON
Tue 09:23:04 AM 28.7500 -81.1000 258° West 255 293 7,500 -1,271 Descending Orlando TRACON
Tue 09:23:35 AM 28.7450 -81.1261 230° Southwest 230 265 6,900 -1,467 Descending Jacksonville Center
Tue 09:24:34 AM 28.7061 -81.1789 219° Southwest 221 254 5,300 -1,550 Descending Jacksonville Center
Tue 09:25:35 AM 28.6567 -81.2247 220° Southwest 226 260 3,800 -1,190 Descending Jacksonville Center
Tue 09:26:35 AM 28.6092 -81.2703 204° Southwest 226 260 2,900 -750 Descending Jacksonville Center
Tue 09:27:11 AM 28.5833 -81.2833 180° South 203 234 2,600 -791 Descending Orlando TRACON
Tue 09:28:06 AM 28.5333 -81.2833 180° South 191 220 1,700 -887 Descending Orlando TRACON
Tue 09:29:06 AM 28.4833 -81.2833 174° South 150 173 900 -800 Descending Orlando TRACON
Tue 09:36:32 AM 27.6297 -81.1774 354° North  Level FlightAware Approximate
Tue 09:37:32 AM 27.7446 -81.1915 354° North  Level FlightAware Approximate
Tue 09:38:32 AM 27.8594 -81.2057 354° North  Level FlightAware Approximate
Tue 09:39:32 AM 27.9743 -81.2199 354° North  Level FlightAware Approximate

Login

Don't have an account? Register now (free) for customized features, flight alerts, and more!